Time;durP1;ratioP1;P1;durP2;ratioP2;P2;SDS_P1;SDS_P2;PMS_P1;PMS_P2;Temp;Humidity;BMP_temperature;BMP_pressure;BME280_temperature;BME280_humidity;BME280_pressure;Samples;Min_cycle;Max_cycle;Signal;HPM_P1;HPM_P2
2021/10/03 00:01:58;;;;;;;1.10;0.60;;;17.10;99.90;;;;;;5047429;28;20026;-62
2021/10/03 00:04:26;;;;;;;1.85;0.40;;;17.10;99.90;;;;;;5050774;28;20527;-62
2021/10/03 00:06:53;;;;;;;0.70;0.43;;;17.10;99.90;;;;;;5048474;28;20064;-62
2021/10/03 00:09:19;;;;;;;1.25;0.50;;;17.10;99.90;;;;;;5035664;28;20040;-63
2021/10/03 00:11:52;;;;;;;0.47;0.30;;;17.20;99.90;;;;;;5032899;28;20021;-62
2021/10/03 00:14:20;;;;;;;0.82;0.40;;;17.20;99.90;;;;;;5034921;28;20032;-62
2021/10/03 00:16:48;;;;;;;1.33;0.47;;;17.20;99.90;;;;;;5054479;28;20029;-62
2021/10/03 00:19:15;;;;;;;0.82;0.40;;;17.20;99.90;;;;;;5042969;28;20029;-62
2021/10/03 00:21:41;;;;;;;0.93;0.40;;;17.20;99.90;;;;;;5038881;28;20021;-62
2021/10/03 00:24:07;;;;;;;0.70;0.38;;;17.20;99.90;;;;;;5045481;28;20041;-62
2021/10/03 00:26:34;;;;;;;1.50;0.40;;;17.30;99.90;;;;;;5035756;28;20037;-62
2021/10/03 00:29:00;;;;;;;0.65;0.40;;;17.20;99.90;;;;;;5054142;28;20074;-62
2021/10/03 00:31:26;;;;;;;0.90;0.40;;;17.30;99.90;;;;;;5055223;28;20431;-62
2021/10/03 00:33:52;;;;;;;1.48;0.45;;;17.30;99.90;;;;;;5040470;28;20469;-62
2021/10/03 00:36:17;;;;;;;0.68;0.50;;;17.30;99.90;;;;;;5054999;28;20037;-62
2021/10/03 00:38:43;;;;;;;2.28;0.30;;;17.30;99.90;;;;;;5037668;28;20053;-62
2021/10/03 00:41:09;;;;;;;1.80;0.40;;;17.30;99.90;;;;;;5035316;28;20216;-62
2021/10/03 00:43:34;;;;;;;0.80;0.40;;;17.30;99.90;;;;;;5048951;28;20500;-63
2021/10/03 00:46:00;;;;;;;1.30;0.30;;;17.40;99.90;;;;;;5034453;28;20054;-62
2021/10/03 00:48:25;;;;;;;1.48;0.38;;;17.30;99.90;;;;;;5035234;28;20071;-62
2021/10/03 00:50:51;;;;;;;1.83;0.82;;;17.30;99.90;;;;;;5048751;28;20091;-63
2021/10/03 00:53:17;;;;;;;2.78;0.57;;;17.30;99.90;;;;;;5043834;28;20025;-62
2021/10/03 00:55:43;;;;;;;1.65;0.50;;;17.30;99.90;;;;;;5040547;28;20041;-62
2021/10/03 00:58:10;;;;;;;2.38;0.80;;;17.20;99.90;;;;;;5046877;28;20108;-62
2021/10/03 01:00:37;;;;;;;0.85;0.30;;;17.30;99.90;;;;;;5049090;28;20033;-62
2021/10/03 01:03:05;;;;;;;1.80;0.40;;;17.20;99.90;;;;;;5035099;28;20017;-62
2021/10/03 01:05:31;;;;;;;0.47;0.30;;;17.20;99.90;;;;;;5044387;28;20126;-62
2021/10/03 01:07:58;;;;;;;0.68;0.30;;;17.20;99.90;;;;;;5040564;28;20022;-62
2021/10/03 01:10:25;;;;;;;0.63;0.30;;;17.20;99.90;;;;;;5045776;28;20025;-62
2021/10/03 01:13:05;;;;;;;0.57;0.32;;;17.20;99.90;;;;;;5035408;28;20025;-63
2021/10/03 01:15:37;;;;;;;1.45;0.40;;;17.20;99.90;;;;;;5044561;28;20025;-62
2021/10/03 01:18:03;;;;;;;0.47;0.30;;;17.20;99.90;;;;;;5035848;28;20029;-63
2021/10/03 01:20:30;;;;;;;0.63;0.40;;;17.20;99.90;;;;;;5046676;28;20045;-62
2021/10/03 01:22:56;;;;;;;1.50;0.30;;;17.20;99.90;;;;;;5034618;28;20036;-62
2021/10/03 01:25:22;;;;;;;0.25;0.20;;;17.20;99.90;;;;;;5038834;28;20115;-62
2021/10/03 01:27:48;;;;;;;0.80;0.30;;;17.10;99.90;;;;;;5042682;28;20025;-62
2021/10/03 01:30:17;;;;;;;1.08;0.30;;;17.10;99.90;;;;;;5034309;28;20018;-62
2021/10/03 01:32:43;;;;;;;1.85;0.30;;;17.10;99.90;;;;;;5044692;28;20021;-62
2021/10/03 01:35:10;;;;;;;1.30;0.40;;;17.00;99.90;;;;;;5040210;28;20032;-62
2021/10/03 01:37:38;;;;;;;0.77;0.30;;;17.00;99.90;;;;;;5054235;28;20103;-62
2021/10/03 01:40:07;;;;;;;0.80;0.28;;;16.90;99.90;;;;;;5039333;28;20021;-62
2021/10/03 01:42:32;;;;;;;0.93;0.35;;;16.90;99.90;;;;;;5040119;28;20526;-62
2021/10/03 01:44:58;;;;;;;2.00;0.35;;;16.90;99.90;;;;;;5040738;28;20100;-62
2021/10/03 01:47:24;;;;;;;0.60;0.40;;;16.90;99.90;;;;;;5034077;28;20053;-62
2021/10/03 01:49:50;;;;;;;0.30;0.30;;;16.90;99.90;;;;;;5060599;28;20021;-62
2021/10/03 01:52:15;;;;;;;0.40;0.20;;;16.90;99.90;;;;;;5037103;28;20018;-63
2021/10/03 01:54:41;;;;;;;0.60;0.38;;;16.90;99.90;;;;;;5046004;28;20493;-62
2021/10/03 01:57:07;;;;;;;0.40;0.30;;;16.90;99.90;;;;;;5034076;28;20029;-63
2021/10/03 01:59:32;;;;;;;0.50;0.35;;;16.90;99.90;;;;;;5038843;28;20112;-62
2021/10/03 02:01:58;;;;;;;0.75;0.38;;;16.90;99.90;;;;;;5043391;28;20026;-62
2021/10/03 02:04:25;;;;;;;1.05;0.50;;;16.90;99.90;;;;;;5034275;28;20052;-62
2021/10/03 02:06:53;;;;;;;2.05;0.40;;;17.00;99.90;;;;;;5046293;28;20024;-62
2021/10/03 02:09:20;;;;;;;0.43;0.35;;;17.00;99.90;;;;;;5032529;28;20385;-62
2021/10/03 02:11:48;;;;;;;1.63;0.40;;;17.00;99.90;;;;;;5047507;28;20013;-62
2021/10/03 02:14:16;;;;;;;0.95;0.40;;;17.00;99.90;;;;;;5033608;28;20132;-62
2021/10/03 02:16:42;;;;;;;0.98;0.50;;;16.90;99.90;;;;;;5047301;28;20029;-62
2021/10/03 02:19:08;;;;;;;0.70;0.40;;;17.00;99.90;;;;;;5032449;28;20063;-62
2021/10/03 02:21:34;;;;;;;0.70;0.40;;;17.00;99.90;;;;;;5049605;28;20057;-62
2021/10/03 02:24:00;;;;;;;0.85;0.43;;;17.00;99.90;;;;;;5046398;28;20025;-62
2021/10/03 02:26:25;;;;;;;3.92;0.50;;;17.00;99.90;;;;;;5033397;28;20108;-62
2021/10/03 02:28:51;;;;;;;2.13;0.60;;;17.00;99.90;;;;;;5051663;28;20496;-62
2021/10/03 02:31:17;;;;;;;0.73;0.40;;;17.00;99.90;;;;;;5044107;28;20037;-62
2021/10/03 02:33:45;;;;;;;3.05;0.57;;;16.90;99.90;;;;;;5045679;28;20036;-62
2021/10/03 02:36:12;;;;;;;1.20;0.50;;;16.90;99.90;;;;;;5033271;28;20036;-62
2021/10/03 02:38:38;;;;;;;3.15;0.40;;;16.90;99.90;;;;;;5032082;28;20484;-62
2021/10/03 02:41:06;;;;;;;1.17;0.50;;;16.80;99.90;;;;;;5063646;28;20057;-62
2021/10/03 02:43:34;;;;;;;1.42;0.57;;;16.80;99.90;;;;;;5032904;28;20435;-62
2021/10/03 02:46:00;;;;;;;2.35;0.70;;;16.80;99.90;;;;;;5048303;28;20060;-62
2021/10/03 02:48:28;;;;;;;0.68;0.40;;;16.80;99.90;;;;;;5052176;28;20025;-62
2021/10/03 02:50:54;;;;;;;0.93;0.40;;;16.80;99.90;;;;;;5053266;28;20021;-62
2021/10/03 02:53:22;;;;;;;1.55;0.60;;;16.80;99.90;;;;;;5053074;28;20114;-62
2021/10/03 02:55:49;;;;;;;1.15;0.50;;;16.80;99.90;;;;;;5051566;28;20040;-62
2021/10/03 02:58:14;;;;;;;1.13;0.50;;;16.80;99.90;;;;;;5052977;28;20033;-62
2021/10/03 03:00:41;;;;;;;1.00;0.50;;;16.70;99.90;;;;;;5052985;28;20032;-62
2021/10/03 03:03:07;;;;;;;0.60;0.50;;;16.80;99.90;;;;;;5052866;28;20033;-62
2021/10/03 03:05:33;;;;;;;1.60;0.60;;;16.80;99.90;;;;;;5052726;28;20358;-62
2021/10/03 03:07:59;;;;;;;0.68;0.50;;;16.80;99.90;;;;;;5052994;28;20021;-62
2021/10/03 03:10:25;;;;;;;1.05;0.63;;;16.80;99.90;;;;;;5052732;28;20029;-62
2021/10/03 03:12:50;;;;;;;1.02;0.60;;;16.90;99.90;;;;;;5052985;28;20033;-62
2021/10/03 03:15:16;;;;;;;0.93;0.50;;;16.90;99.90;;;;;;5052349;28;20096;-62
2021/10/03 03:17:41;;;;;;;1.00;0.60;;;16.90;99.90;;;;;;5052414;28;20530;-62
2021/10/03 03:20:09;;;;;;;2.58;0.60;;;16.90;99.90;;;;;;5052954;28;20549;-62
2021/10/03 03:22:35;;;;;;;1.92;0.55;;;16.90;99.90;;;;;;5052487;28;20029;-62
2021/10/03 03:25:02;;;;;;;0.93;0.75;;;17.00;99.90;;;;;;5052564;28;20040;-62
2021/10/03 03:27:28;;;;;;;1.67;0.65;;;17.00;99.90;;;;;;5052698;28;20025;-62
2021/10/03 03:29:53;;;;;;;3.58;0.73;;;17.00;99.90;;;;;;5052548;28;20473;-62
2021/10/03 03:32:19;;;;;;;2.40;0.80;;;16.90;99.90;;;;;;5052675;28;20443;-66
2021/10/03 03:34:44;;;;;;;1.02;0.40;;;16.80;99.90;;;;;;5052543;28;20503;-66
2021/10/03 03:37:10;;;;;;;1.52;0.40;;;16.70;99.90;;;;;;5052703;28;20075;-65
2021/10/03 03:39:36;;;;;;;2.35;0.40;;;16.50;99.90;;;;;;5051380;28;20025;-64
2021/10/03 03:42:01;;;;;;;1.05;0.30;;;16.40;99.90;;;;;;5052596;28;20094;-65
2021/10/03 03:44:28;;;;;;;0.65;0.30;;;16.30;99.90;;;;;;5052276;28;20045;-64
2021/10/03 03:46:54;;;;;;;2.35;0.40;;;16.20;99.90;;;;;;5052423;28;20025;-64
2021/10/03 03:49:19;;;;;;;1.15;0.32;;;16.10;99.90;;;;;;5052571;28;20086;-64
2021/10/03 03:51:45;;;;;;;1.90;0.82;;;16.10;99.90;;;;;;5052446;28;20112;-64
2021/10/03 03:54:10;;;;;;;2.13;0.50;;;16.00;99.90;;;;;;5052037;28;20052;-64
2021/10/03 03:56:36;;;;;;;1.50;0.40;;;15.90;99.90;;;;;;5052286;28;20029;-63
2021/10/03 03:59:01;;;;;;;1.02;0.43;;;15.70;99.90;;;;;;5052177;28;20021;-63
2021/10/03 04:01:27;;;;;;;0.88;0.50;;;15.70;99.90;;;;;;5052350;28;20025;-63
2021/10/03 04:03:53;;;;;;;1.52;0.30;;;15.60;99.90;;;;;;5051882;28;20025;-63
2021/10/03 04:06:19;;;;;;;2.15;0.40;;;15.60;99.90;;;;;;5052033;28;20112;-63
2021/10/03 04:08:45;;;;;;;1.25;0.45;;;15.60;99.90;;;;;;5051218;28;20163;-63
2021/10/03 04:11:13;;;;;;;1.40;0.40;;;15.70;99.90;;;;;;5050865;28;20034;-63
2021/10/03 04:13:39;;;;;;;0.55;0.38;;;15.70;99.90;;;;;;5052001;28;20028;-63
2021/10/03 04:16:04;;;;;;;1.38;0.30;;;15.70;99.90;;;;;;5050924;28;20024;-63
2021/10/03 04:18:30;;;;;;;0.68;0.30;;;15.70;99.90;;;;;;5051957;28;20068;-63
2021/10/03 04:20:55;;;;;;;2.35;0.40;;;15.80;99.90;;;;;;5052192;28;20025;-63
2021/10/03 04:23:21;;;;;;;0.60;0.30;;;15.80;99.90;;;;;;5050735;28;20477;-63
2021/10/03 04:25:46;;;;;;;1.17;0.30;;;15.70;99.90;;;;;;5051981;28;20025;-63
2021/10/03 04:28:12;;;;;;;0.75;0.28;;;15.70;99.90;;;;;;5054491;28;20423;-63
2021/10/03 04:30:37;;;;;;;1.08;0.28;;;15.70;99.90;;;;;;5055735;28;20017;-63
2021/10/03 04:33:03;;;;;;;0.52;0.20;;;15.60;99.90;;;;;;5054448;28;20027;-63
2021/10/03 04:35:28;;;;;;;0.43;0.20;;;15.60;99.90;;;;;;5055531;28;20025;-63
2021/10/03 04:37:54;;;;;;;0.35;0.20;;;15.50;99.90;;;;;;5054329;28;20029;-66
2021/10/03 04:40:19;;;;;;;1.17;0.20;;;15.50;99.90;;;;;;5055702;28;20082;-63
2021/10/03 04:42:47;;;;;;;0.38;0.10;;;15.40;99.90;;;;;;5055342;28;20040;-63
2021/10/03 04:45:14;;;;;;;0.50;0.20;;;15.30;99.90;;;;;;5055287;28;20045;-63
2021/10/03 04:47:39;;;;;;;0.65;0.45;;;15.30;99.90;;;;;;5054217;28;20441;-63
2021/10/03 04:50:05;;;;;;;0.38;0.20;;;15.30;99.90;;;;;;5054127;28;20068;-63
2021/10/03 04:52:31;;;;;;;0.90;0.20;;;15.30;99.90;;;;;;5055070;28;20052;-63
2021/10/03 04:54:56;;;;;;;0.30;0.20;;;15.20;99.90;;;;;;5055325;28;20495;-63
2021/10/03 04:57:22;;;;;;;0.75;0.22;;;15.20;99.90;;;;;;5055153;28;20519;-63
2021/10/03 04:59:48;;;;;;;0.93;0.20;;;15.20;99.90;;;;;;5055085;28;20028;-63
2021/10/03 05:02:13;;;;;;;0.30;0.10;;;15.20;99.90;;;;;;5055305;28;20058;-63
2021/10/03 05:04:39;;;;;;;0.15;0.10;;;15.20;99.90;;;;;;5053705;28;20025;-63
2021/10/03 05:07:05;;;;;;;0.15;0.10;;;15.20;99.90;;;;;;5054814;28;20036;-63
2021/10/03 05:09:30;;;;;;;0.88;0.10;;;15.20;99.90;;;;;;5054991;28;20489;-63
2021/10/03 05:11:56;;;;;;;0.30;0.20;;;15.20;99.90;;;;;;5055168;28;20040;-63
2021/10/03 05:14:22;;;;;;;0.50;0.47;;;15.10;99.90;;;;;;5054948;28;20025;-63
2021/10/03 05:16:47;;;;;;;0.32;0.10;;;15.10;99.90;;;;;;5054411;28;20091;-63
2021/10/03 05:19:13;;;;;;;0.30;0.10;;;15.00;99.90;;;;;;5054924;28;20031;-64
2021/10/03 05:21:39;;;;;;;0.35;0.10;;;15.00;99.90;;;;;;5054745;28;20036;-63
2021/10/03 05:24:05;;;;;;;0.77;0.28;;;15.00;99.90;;;;;;5054679;28;20033;-63
2021/10/03 05:26:30;;;;;;;1.48;0.15;;;15.00;99.90;;;;;;5054685;28;20029;-63
2021/10/03 05:28:56;;;;;;;1.73;0.40;;;15.00;99.90;;;;;;5054931;28;20021;-63
2021/10/03 05:31:23;;;;;;;1.75;0.30;;;15.00;99.90;;;;;;5054584;28;20472;-63
2021/10/03 05:33:50;;;;;;;1.65;0.30;;;14.90;99.90;;;;;;5054882;28;20025;-64
2021/10/03 05:36:16;;;;;;;0.50;0.20;;;14.90;99.90;;;;;;5054365;28;20082;-64
2021/10/03 05:38:41;;;;;;;0.43;0.20;;;14.90;99.90;;;;;;5053457;28;20025;-63
2021/10/03 05:41:07;;;;;;;0.20;0.20;;;14.90;99.90;;;;;;5054628;28;20388;-63
2021/10/03 05:43:34;;;;;;;0.30;0.13;;;14.90;99.90;;;;;;5054246;28;20033;-63
2021/10/03 05:46:00;;;;;;;0.85;0.20;;;15.00;99.90;;;;;;5052728;28;20072;-63
2021/10/03 05:48:26;;;;;;;0.30;0.20;;;14.90;99.90;;;;;;5054290;28;20033;-63
2021/10/03 05:50:51;;;;;;;0.30;0.20;;;15.00;99.90;;;;;;5054168;28;20017;-64
2021/10/03 05:53:17;;;;;;;0.20;0.20;;;15.00;99.90;;;;;;5054066;28;20021;-63
2021/10/03 05:55:42;;;;;;;1.27;0.30;;;15.00;99.90;;;;;;5054172;28;20082;-64
2021/10/03 05:58:08;;;;;;;0.82;0.60;;;15.00;99.90;;;;;;5054105;28;20392;-63
2021/10/03 06:00:33;;;;;;;2.78;0.70;;;14.90;99.90;;;;;;5053994;28;20083;-64
2021/10/03 06:02:59;;;;;;;0.95;0.50;;;14.80;99.90;;;;;;5050346;28;20029;-63
2021/10/03 06:05:29;;;;;;;0.68;0.45;;;14.80;99.90;;;;;;5051039;28;20070;-63
2021/10/03 06:10:53;;;;;;;0.68;0.32;;;14.80;99.90;;;;;;5032652;28;20052;-63
2021/10/03 06:13:19;;;;;;;1.95;0.60;;;14.80;99.90;;;;;;5045877;28;20020;-63
2021/10/03 06:15:45;;;;;;;1.02;0.55;;;14.70;99.90;;;;;;5046654;28;20033;-63
2021/10/03 06:18:14;;;;;;;1.52;0.50;;;14.70;99.90;;;;;;5048087;28;20030;-63
2021/10/03 06:20:41;;;;;;;1.13;0.50;;;14.70;99.90;;;;;;5036890;28;20028;-63
2021/10/03 06:23:07;;;;;;;0.90;0.60;;;14.70;99.90;;;;;;5046923;28;20392;-64
2021/10/03 06:25:33;;;;;;;0.55;0.40;;;14.70;99.90;;;;;;5044376;28;20021;-63
2021/10/03 06:27:59;;;;;;;0.90;0.43;;;14.70;99.90;;;;;;5045463;28;20025;-64
2021/10/03 06:30:24;;;;;;;1.13;0.52;;;14.70;99.90;;;;;;5044095;28;20358;-64
2021/10/03 06:32:50;;;;;;;1.55;0.60;;;14.70;99.90;;;;;;5049486;28;20468;-64
2021/10/03 06:35:16;;;;;;;2.10;0.52;;;14.60;99.90;;;;;;5046189;28;20021;-64
2021/10/03 06:37:42;;;;;;;1.52;0.55;;;14.70;99.90;;;;;;5050732;28;20017;-63
2021/10/03 06:40:08;;;;;;;1.70;0.50;;;14.80;99.90;;;;;;5044347;28;20016;-64
2021/10/03 06:42:34;;;;;;;0.50;0.40;;;14.80;99.90;;;;;;5072050;28;20028;-64
2021/10/03 06:44:59;;;;;;;1.02;0.60;;;14.80;99.90;;;;;;5051023;28;20500;-64
2021/10/03 06:47:25;;;;;;;1.65;0.52;;;14.80;99.90;;;;;;5049759;28;20056;-64
2021/10/03 06:49:51;;;;;;;0.70;0.50;;;14.90;99.90;;;;;;5049179;28;20528;-64
2021/10/03 06:52:16;;;;;;;0.98;0.60;;;14.90;99.90;;;;;;5047181;28;20041;-64
2021/10/03 06:54:43;;;;;;;1.85;0.55;;;14.90;99.90;;;;;;5048502;28;20473;-64
2021/10/03 06:57:08;;;;;;;1.65;0.70;;;14.90;99.90;;;;;;5044983;28;20017;-63
2021/10/03 06:59:34;;;;;;;1.20;0.77;;;14.90;99.90;;;;;;5049642;28;20021;-64
2021/10/03 07:02:07;;;;;;;1.33;0.77;;;14.90;99.90;;;;;;5043351;28;20492;-64
2021/10/03 07:04:32;;;;;;;2.38;0.82;;;14.90;99.90;;;;;;5033597;28;20048;-64
2021/10/03 07:06:59;;;;;;;0.93;0.60;;;14.90;99.90;;;;;;5049448;28;20119;-64
2021/10/03 07:09:25;;;;;;;1.67;0.68;;;14.90;99.90;;;;;;5049298;28;20025;-64
2021/10/03 07:11:51;;;;;;;1.67;0.80;;;14.80;99.90;;;;;;5051600;28;20112;-64
2021/10/03 07:14:17;;;;;;;0.80;0.60;;;14.80;99.90;;;;;;5048723;28;20039;-64
2021/10/03 07:16:42;;;;;;;2.50;0.70;;;14.90;99.90;;;;;;5048700;28;20480;-64
2021/10/03 07:19:08;;;;;;;1.23;0.73;;;14.90;99.90;;;;;;5048652;28;20029;-64
2021/10/03 07:21:34;;;;;;;1.60;1.00;;;14.90;99.90;;;;;;5051567;28;20079;-64
2021/10/03 07:23:59;;;;;;;1.80;0.93;;;14.80;99.90;;;;;;5045548;28;20028;-64
2021/10/03 07:26:25;;;;;;;1.50;0.60;;;14.80;99.90;;;;;;5045062;28;20064;-64
2021/10/03 07:28:50;;;;;;;1.25;0.95;;;14.90;99.90;;;;;;5046490;28;20023;-64
2021/10/03 07:31:36;;;;;;;3.45;1.30;;;14.90;99.90;;;;;;5047203;28;20060;-64
2021/10/03 07:42:07;;;;;;;1.98;0.82;;;14.80;99.90;;;;;;4953823;28;20070;-64
2021/10/03 07:44:33;;;;;;;2.72;0.80;;;14.90;99.90;;;;;;4946677;28;20094;-64
2021/10/03 07:46:59;;;;;;;1.13;0.90;;;14.80;99.90;;;;;;5039865;28;20025;-64
2021/10/03 07:49:24;;;;;;;1.65;1.05;;;14.80;99.90;;;;;;5045211;28;20017;-64
2021/10/03 07:51:50;;;;;;;1.63;1.00;;;14.90;99.90;;;;;;5044900;28;20048;-64
2021/10/03 07:55:15;;;;;;;;;;;;;;;;;;;;;
2021/10/03 07:57:51;;;;;;;2.70;1.20;;;14.90;99.90;;;;;;5032517;28;20034;-64
2021/10/03 08:00:17;;;;;;;1.15;1.00;;;14.90;99.90;;;;;;5035701;28;20029;-64
2021/10/03 08:02:42;;;;;;;1.88;1.25;;;14.80;99.90;;;;;;5038881;28;20029;-64
2021/10/03 08:05:08;;;;;;;2.15;1.30;;;14.90;99.90;;;;;;5037467;28;20032;-64
2021/10/03 08:07:33;;;;;;;1.80;1.20;;;15.00;99.90;;;;;;5032647;28;20469;-64
2021/10/03 08:09:59;;;;;;;1.52;1.17;;;14.90;99.90;;;;;;5039350;28;20022;-65
2021/10/03 08:12:24;;;;;;;2.88;1.02;;;15.00;99.90;;;;;;5047044;28;20025;-64
2021/10/03 08:14:50;;;;;;;1.17;0.90;;;15.00;99.90;;;;;;5045721;28;20013;-64
2021/10/03 08:17:15;;;;;;;2.08;0.90;;;15.00;99.90;;;;;;5044156;28;20029;-65
2021/10/03 08:19:41;;;;;;;1.48;0.70;;;14.90;99.90;;;;;;5049748;28;20447;-64
2021/10/03 08:25:37;;;;;;;1.83;0.60;;;14.80;99.90;;;;;;5037637;28;20052;-64
2021/10/03 08:28:03;;;;;;;1.60;0.30;;;14.70;99.90;;;;;;5046186;28;20488;-64
2021/10/03 08:30:28;;;;;;;0.85;0.40;;;14.70;99.90;;;;;;5045028;28;20447;-64
2021/10/03 08:32:54;;;;;;;1.10;0.40;;;14.70;99.90;;;;;;5047383;28;20029;-64
2021/10/03 08:35:19;;;;;;;3.65;0.45;;;14.70;99.90;;;;;;5039973;28;20048;-64
2021/10/03 08:37:45;;;;;;;0.30;0.20;;;14.60;99.90;;;;;;5045175;28;20358;-65
2021/10/03 08:40:12;;;;;;;3.13;0.40;;;14.60;99.90;;;;;;5041367;28;20026;-64
2021/10/03 08:42:38;;;;;;;0.38;0.20;;;14.60;99.90;;;;;;5040713;28;20504;-65
2021/10/03 08:45:04;;;;;;;1.98;0.30;;;14.60;99.90;;;;;;5037705;28;20054;-65
2021/10/03 08:47:30;;;;;;;2.25;0.35;;;14.60;99.90;;;;;;5044635;28;20063;-65
2021/10/03 08:49:57;;;;;;;1.52;0.20;;;14.60;99.90;;;;;;5036897;28;20045;-65
2021/10/03 08:52:24;;;;;;;0.82;0.30;;;14.60;99.90;;;;;;5036618;28;20045;-65
2021/10/03 08:54:59;;;;;;;1.05;0.30;;;14.60;99.90;;;;;;5041728;28;20060;-65
2021/10/03 08:57:27;;;;;;;1.00;0.40;;;14.60;99.90;;;;;;5050082;28;20075;-65
2021/10/03 09:00:17;;;;;;;1.08;0.30;;;14.60;99.90;;;;;;5042141;28;20370;-65
2021/10/03 09:02:54;;;;;;;1.15;0.30;;;14.60;99.90;;;;;;5042662;28;20025;-65
2021/10/03 09:05:21;;;;;;;6.32;0.93;;;14.60;99.90;;;;;;5048535;28;20422;-64
2021/10/03 09:08:10;;;;;;;2.50;0.50;;;14.50;99.90;;;;;;5049911;28;20014;-65
2021/10/03 09:10:45;;;;;;;1.67;0.32;;;14.50;99.90;;;;;;5049324;28;20021;-65
2021/10/03 09:13:10;;;;;;;0.68;0.40;;;14.50;99.90;;;;;;5043771;28;20020;-65
2021/10/03 09:15:36;;;;;;;0.77;0.40;;;14.50;99.90;;;;;;5051989;28;20014;-65
2021/10/03 09:18:05;;;;;;;1.55;0.40;;;14.50;99.90;;;;;;5045868;28;20056;-65
2021/10/03 09:20:31;;;;;;;4.25;1.10;;;14.40;99.90;;;;;;5047890;28;20024;-64
2021/10/03 09:23:11;;;;;;;2.45;0.32;;;14.40;99.90;;;;;;5051214;28;20027;-65
2021/10/03 09:25:45;;;;;;;0.73;0.30;;;14.40;99.90;;;;;;5046664;28;20071;-65
2021/10/03 09:28:31;;;;;;;2.25;0.55;;;14.50;99.90;;;;;;5051107;28;20025;-65
2021/10/03 09:31:11;;;;;;;1.15;0.35;;;14.50;99.90;;;;;;5049618;28;20025;-65
2021/10/03 09:33:51;;;;;;;0.45;0.20;;;14.50;99.90;;;;;;5050242;28;20029;-65
2021/10/03 09:37:08;;;;;;;0.50;0.30;;;14.50;99.90;;;;;;5051282;28;20052;-65
2021/10/03 09:39:40;;;;;;;0.70;0.40;;;14.50;99.90;;;;;;5062525;28;20030;-65
2021/10/03 09:42:12;;;;;;;1.00;0.45;;;14.50;99.90;;;;;;5044541;28;20029;-65
2021/10/03 09:44:38;;;;;;;0.70;0.50;;;14.50;99.90;;;;;;5045330;28;20137;-65
2021/10/03 09:47:06;;;;;;;0.70;0.50;;;14.50;99.90;;;;;;5042393;28;20117;-65
2021/10/03 09:49:32;;;;;;;1.00;0.63;;;14.50;99.90;;;;;;5053569;28;20027;-65
2021/10/03 09:54:49;;;;;;;0.40;0.40;;;14.60;99.90;;;;;;5053887;28;20032;-65
2021/10/03 09:57:17;;;;;;;0.50;0.32;;;14.60;99.90;;;;;;5050775;28;20036;-65
2021/10/03 09:59:45;;;;;;;0.55;0.30;;;14.60;99.90;;;;;;5052033;28;20461;-65
2021/10/03 10:02:13;;;;;;;0.90;0.30;;;14.60;99.90;;;;;;5041594;28;20333;-65
2021/10/03 10:04:40;;;;;;;0.70;0.30;;;14.60;99.90;;;;;;5050037;28;20017;-65
2021/10/03 10:07:05;;;;;;;0.30;0.20;;;14.60;99.90;;;;;;5053510;28;20021;-65
2021/10/03 10:09:33;;;;;;;0.43;0.10;;;14.70;99.90;;;;;;5051348;28;20018;-65
2021/10/03 10:12:24;;;;;;;0.40;0.15;;;14.70;99.90;;;;;;5067255;28;20052;-65
2021/10/03 10:15:39;;;;;;;0.20;0.10;;;14.80;99.90;;;;;;5045013;28;20029;-65
2021/10/03 10:18:22;;;;;;;0.22;0.20;;;14.90;99.90;;;;;;5033421;28;20037;-65
2021/10/03 10:20:48;;;;;;;0.20;0.20;;;14.90;99.90;;;;;;5054278;28;20488;-65
2021/10/03 10:23:18;;;;;;;0.28;0.20;;;14.80;99.90;;;;;;5064329;28;20109;-65
2021/10/03 10:25:56;;;;;;;0.43;0.20;;;14.90;99.90;;;;;;5068051;28;20032;-65
2021/10/03 10:28:28;;;;;;;0.45;0.22;;;14.90;99.90;;;;;;5071764;28;20028;-65
2021/10/03 10:31:36;;;;;;;0.32;0.25;;;15.00;99.90;;;;;;5048234;28;20548;-65
2021/10/03 10:38:16;;;;;;;0.90;0.35;;;15.00;99.90;;;;;;5010326;28;20407;-65
2021/10/03 10:40:42;;;;;;;0.43;0.40;;;15.10;99.90;;;;;;5049490;28;20016;-65
2021/10/03 10:43:20;;;;;;;;;;;;;;;;;;;;;
2021/10/03 10:46:32;;;;;;;0.75;0.50;;;15.10;99.90;;;;;;5062827;28;20041;-64
2021/10/03 10:49:25;;;;;;;1.08;0.45;;;15.10;99.90;;;;;;5037798;28;20029;-65
2021/10/03 10:52:20;;;;;;;0.40;0.40;;;15.20;99.90;;;;;;5057983;28;20123;-65
2021/10/03 10:55:23;;;;;;;;;;;;;;;;;;;;;
2021/10/03 10:57:49;;;;;;;0.60;0.40;;;15.30;99.90;;;;;;5051800;28;20019;-65
2021/10/03 11:00:28;;;;;;;0.43;0.40;;;15.30;99.90;;;;;;5058179;28;20099;-65
2021/10/03 11:02:55;;;;;;;0.30;0.30;;;15.40;99.90;;;;;;5043239;28;20068;-65
2021/10/03 11:05:51;;;;;;;0.32;0.30;;;15.40;99.90;;;;;;5038516;28;20029;-65
2021/10/03 11:08:20;;;;;;;1.02;0.30;;;15.40;99.90;;;;;;5047709;28;20025;-65
2021/10/03 11:11:31;;;;;;;;;;;;;;;;;;;;;
2021/10/03 11:14:43;;;;;;;0.40;0.38;;;15.40;99.90;;;;;;5034892;28;20059;-65
2021/10/03 11:17:10;;;;;;;0.20;0.20;;;15.40;99.90;;;;;;5034856;28;20048;-65
2021/10/03 11:19:41;;;;;;;0.20;0.20;;;15.40;99.90;;;;;;5060429;28;20017;-65
2021/10/03 11:22:20;;;;;;;0.40;0.20;;;15.40;99.90;;;;;;5048126;28;20024;-65
2021/10/03 11:24:55;;;;;;;0.38;0.20;;;15.50;99.90;;;;;;5043768;28;20067;-65
2021/10/03 11:27:27;;;;;;;0.50;0.30;;;15.50;99.90;;;;;;5062821;28;20082;-65
2021/10/03 11:29:57;;;;;;;0.20;0.20;;;15.50;99.90;;;;;;5065373;28;20492;-65
2021/10/03 11:32:29;;;;;;;0.30;0.30;;;15.50;99.90;;;;;;5053612;28;20037;-65
2021/10/03 11:35:11;;;;;;;0.50;0.40;;;15.50;99.90;;;;;;5039130;28;20021;-65
2021/10/03 11:37:45;;;;;;;0.55;0.30;;;15.50;99.90;;;;;;5051235;28;20098;-66
2021/10/03 11:40:32;;;;;;;0.80;0.45;;;15.50;99.90;;;;;;5070535;28;20043;-65
2021/10/03 11:42:58;;;;;;;0.93;0.50;;;15.50;99.90;;;;;;5047785;28;20022;-65
2021/10/03 11:45:24;;;;;;;0.50;0.40;;;15.50;99.90;;;;;;5053406;28;20088;-65
2021/10/03 11:48:04;;;;;;;0.38;0.30;;;15.50;99.90;;;;;;5055620;28;20118;-65
2021/10/03 11:50:33;;;;;;;0.63;0.40;;;15.50;99.90;;;;;;5062858;28;20028;-65
2021/10/03 11:53:47;;;;;;;0.73;0.30;;;15.50;99.90;;;;;;5058792;28;20025;-65
2021/10/03 11:57:33;;;;;;;0.40;0.35;;;15.60;99.90;;;;;;5052849;28;20039;-65
2021/10/03 12:03:11;;;;;;;1.08;0.40;;;15.60;99.90;;;;;;5044906;28;20124;-66
2021/10/03 12:05:36;;;;;;;0.47;0.40;;;15.60;99.90;;;;;;5044529;28;20112;-66
2021/10/03 12:08:15;;;;;;;0.75;0.50;;;15.70;99.90;;;;;;5054459;28;20672;-66
2021/10/03 12:10:50;;;;;;;0.70;0.50;;;15.70;99.90;;;;;;5039820;28;20033;-65
2021/10/03 12:13:20;;;;;;;1.23;0.68;;;15.70;99.90;;;;;;5063185;28;20025;-66
2021/10/03 12:15:59;;;;;;;1.75;0.60;;;15.70;99.90;;;;;;5061172;28;20363;-66
2021/10/03 12:18:24;;;;;;;0.60;0.52;;;15.70;99.90;;;;;;5064927;28;20025;-66
2021/10/03 12:20:58;;;;;;;0.50;0.40;;;15.60;99.90;;;;;;5051102;28;20051;-66
2021/10/03 12:23:48;;;;;;;2.03;0.70;;;15.60;99.90;;;;;;5037112;28;20057;-65
2021/10/03 12:26:15;;;;;;;0.70;0.50;;;15.70;99.90;;;;;;5065652;28;20537;-66
2021/10/03 12:28:58;;;;;;;0.60;0.47;;;15.70;99.90;;;;;;5058319;28;20029;-66
2021/10/03 12:31:51;;;;;;;0.75;0.60;;;15.80;99.90;;;;;;5056180;28;20013;-65
2021/10/03 12:34:16;;;;;;;1.08;0.68;;;15.80;99.90;;;;;;5036333;28;20041;-65
2021/10/03 12:37:06;;;;;;;0.75;0.50;;;15.80;99.90;;;;;;5056195;28;20035;-66
2021/10/03 12:40:09;;;;;;;0.82;0.60;;;15.80;99.90;;;;;;5060549;28;20614;-65
2021/10/03 12:45:51;;;;;;;0.75;0.60;;;15.80;99.90;;;;;;5028837;28;20132;-66
2021/10/03 12:48:17;;;;;;;0.60;0.60;;;15.70;99.90;;;;;;5040672;28;20088;-66
2021/10/03 12:50:44;;;;;;;0.70;0.70;;;15.70;99.90;;;;;;5045410;28;20018;-66
2021/10/03 12:53:10;;;;;;;1.38;1.00;;;15.70;99.90;;;;;;5049994;28;20072;-66
2021/10/03 12:55:36;;;;;;;1.73;1.30;;;15.60;99.90;;;;;;5046937;28;20484;-66
2021/10/03 12:58:01;;;;;;;1.55;1.42;;;15.60;99.90;;;;;;5050225;28;20035;-65
2021/10/03 13:00:27;;;;;;;1.60;1.38;;;15.50;99.90;;;;;;5046207;28;20048;-66
2021/10/03 13:02:55;;;;;;;2.78;1.73;;;15.50;99.90;;;;;;5045531;28;20072;-66
2021/10/03 13:05:20;;;;;;;2.65;1.58;;;15.50;99.90;;;;;;5048544;28;20355;-66
2021/10/03 13:07:46;;;;;;;2.05;1.48;;;15.40;99.90;;;;;;5045263;28;20024;-66
2021/10/03 13:10:11;;;;;;;2.55;1.80;;;15.40;99.90;;;;;;5044717;28;20032;-66
2021/10/03 13:12:37;;;;;;;2.53;1.48;;;15.40;99.90;;;;;;5046420;28;20022;-65
2021/10/03 13:15:08;;;;;;;2.00;1.25;;;15.40;99.90;;;;;;5043217;28;20104;-66
2021/10/03 13:17:35;;;;;;;3.60;1.98;;;15.40;99.90;;;;;;5047693;28;20024;-65
2021/10/03 13:20:00;;;;;;;2.25;1.30;;;15.30;99.90;;;;;;5050085;28;20487;-66
2021/10/03 13:22:26;;;;;;;3.25;1.85;;;15.20;99.90;;;;;;5044472;28;20026;-65
2021/10/03 13:24:52;;;;;;;4.57;2.10;;;15.20;99.90;;;;;;5041174;28;20048;-66
2021/10/03 13:27:22;;;;;;;2.17;1.98;;;15.10;99.90;;;;;;5045435;28;20112;-66
2021/10/03 13:29:48;;;;;;;3.53;2.53;;;15.10;99.90;;;;;;5051479;28;20392;-65
2021/10/03 13:32:13;;;;;;;2.85;2.13;;;15.10;99.90;;;;;;5047437;28;20013;-66